Royalwing — JKVX — position and weather

sailwx.info

Track history (hours):
 
Tides and Currents Weather Stations Pressure Air Temp Water Temp Dewpoint Dewpoint Depression Visibility Wind Speed Wind Dir Waves Ship Positions

Royalwing

Last reported at 2018-Apr-19 22:58 UTC. Time now 2018-Apr-19 23:16 UTC.
Position N 35°27' E 139°39'.

Length 83 m; draft 4 m.

Type: Ship (hazmat cat A). MMSI: 431000547.

Date/timePositionNaut miles runAvg speedWind from/ knotsBaromVisibWave heightAir tempDewpointWater temp
2018-Apr-19 22:58N 35°27' E 139°39'0 0.0
2018-Apr-19 22:28N 35°27' E 139°39'0 0.0
2018-Apr-19 21:58N 35°27' E 139°39'0 0.0
2018-Apr-19 21:28N 35°27' E 139°39'0 0.0
2018-Apr-19 20:58N 35°27' E 139°39'0 0.0
2018-Apr-19 20:28N 35°27' E 139°39'0 0.0
2018-Apr-19 19:58N 35°27' E 139°39'0 0.0
2018-Apr-19 19:28N 35°27' E 139°39'0 0.0
2018-Apr-19 18:58N 35°27' E 139°39'0 0.0
2018-Apr-19 18:28N 35°27' E 139°39'0 0.0
2018-Apr-19 17:58N 35°27' E 139°39'0 0.0
2018-Apr-19 17:28N 35°27' E 139°39'0 0.0
2018-Apr-19 16:58N 35°27' E 139°39'0 0.0
2018-Apr-19 16:28N 35°27' E 139°39'0 0.0
2018-Apr-19 15:58N 35°27' E 139°39'0 0.0
2018-Apr-19 15:28N 35°27' E 139°39'0 0.0
2018-Apr-19 14:58N 35°27' E 139°39'0 0.0
2018-Apr-19 14:28N 35°27' E 139°39'0 0.0
2018-Apr-19 13:58N 35°27' E 139°39'0 0.0
2018-Apr-19 13:28N 35°27' E 139°39'0 0.0
2018-Apr-19 12:58N 35°27' E 139°39'0 0.0
2018-Apr-19 12:28N 35°27' E 139°39'1 1.9
2018-Apr-19 12:00N 35°28' E 139°39'3 6.6
2018-Apr-19 11:30N 35°26' E 139°42'1 1.5
2018-Apr-19 11:00N 35°27' E 139°42'2 4.4
2018-Apr-19 10:30N 35°27' E 139°39'0 0.0
2018-Apr-19 10:00N 35°27' E 139°39'1 1.7
2018-Apr-19 09:30N 35°28' E 139°39'2 3.4
2018-Apr-19 09:00N 35°27' E 139°41'0 0.2
2018-Apr-19 08:30N 35°27' E 139°41'2 3.1
2018-Apr-19 08:00N 35°27' E 139°39'0 0.0
2018-Apr-19 07:29N 35°27' E 139°39'0 0.8
2018-Apr-19 07:00N 35°27' E 139°39'2 4.0
2018-Apr-19 06:30N 35°27' E 139°42'2 3.3
2018-Apr-19 06:00N 35°27' E 139°40'1 1.5
2018-Apr-19 05:30N 35°27' E 139°39'0 0.0
2018-Apr-19 05:00N 35°27' E 139°39'1 1.8
2018-Apr-19 04:30N 35°28' E 139°39'3 6.4
2018-Apr-19 04:00N 35°26' E 139°42'1 1.0
2018-Apr-19 03:30N 35°27' E 139°42'2 4.4
2018-Apr-19 03:00N 35°27' E 139°39'0 0.0
2018-Apr-19 02:29N 35°27' E 139°39'0 0.0
2018-Apr-19 01:59N 35°27' E 139°39'0 0.0
2018-Apr-19 01:29N 35°27' E 139°39'0 0.0
2018-Apr-19 00:59N 35°27' E 139°39'0 0.0
2018-Apr-19 00:29N 35°27' E 139°39'0 0.0
2018-Apr-18 23:59N 35°27' E 139°39'0 0.0
2018-Apr-18 23:29N 35°27' E 139°39'0 0.0
2018-Apr-18 22:59N 35°27' E 139°39'0 0.0
2018-Apr-18 22:29N 35°27' E 139°39'0 0.0
2018-Apr-18 21:59N 35°27' E 139°39'0 0.0
2018-Apr-18 21:29N 35°27' E 139°39'0 0.0
2018-Apr-18 20:59N 35°27' E 139°39'0 0.0
2018-Apr-18 20:29N 35°27' E 139°39'0 0.0
2018-Apr-18 19:59N 35°27' E 139°39'0 0.0
2018-Apr-18 19:29N 35°27' E 139°39'0 0.0
2018-Apr-18 18:59N 35°27' E 139°39'0 0.0
2018-Apr-18 18:29N 35°27' E 139°39'0 0.0
2018-Apr-18 17:59N 35°27' E 139°39'0 0.0
2018-Apr-18 17:29N 35°27' E 139°39'0 0.0
2018-Apr-18 16:59N 35°27' E 139°39'0 0.0
2018-Apr-18 16:29N 35°27' E 139°39'0 0.0
2018-Apr-18 15:59N 35°27' E 139°39'0 0.0
2018-Apr-18 15:29N 35°27' E 139°39'0 0.0
2018-Apr-18 14:59N 35°27' E 139°39'0 0.0
2018-Apr-18 14:29N 35°27' E 139°39'0 0.0
2018-Apr-18 13:59N 35°27' E 139°39'0 0.0
2018-Apr-18 13:29N 35°27' E 139°39'0 0.0
2018-Apr-18 12:59N 35°27' E 139°39'0 0.0
2018-Apr-18 12:29N 35°27' E 139°39'1 1.7
2018-Apr-18 12:01N 35°28' E 139°39'2 4.1
2018-Apr-18 11:30N 35°27' E 139°41'0 0.6
2018-Apr-18 11:01N 35°27' E 139°41'2 4.0
2018-Apr-18 10:30N 35°27' E 139°39'0 0.0
2018-Apr-18 10:00N 35°27' E 139°39'1 1.8
2018-Apr-18 09:30N 35°28' E 139°39'0 0.7
2018-Apr-18 09:00N 35°28' E 139°39'2 3.9
2018-Apr-18 08:30N 35°27' E 139°41'2 3.6
2018-Apr-18 08:00N 35°27' E 139°39'0 0.0
2018-Apr-18 07:29N 35°27' E 139°39'1 1.1
2018-Apr-18 07:01N 35°28' E 139°39'3 5.6
2018-Apr-18 06:31N 35°26' E 139°42'2 4.8
2018-Apr-18 06:00N 35°27' E 139°40'1 1.3
2018-Apr-18 05:28N 35°27' E 139°39'0 0.0
2018-Apr-18 04:58N 35°27' E 139°39'1 1.9
2018-Apr-18 04:30N 35°28' E 139°39'3 6.8
2018-Apr-18 04:00N 35°26' E 139°42'1 1.5
2018-Apr-18 03:30N 35°27' E 139°42'2 4.4
2018-Apr-18 03:00N 35°27' E 139°39'0 0.0
2018-Apr-18 02:29N 35°27' E 139°39'0 0.0
2018-Apr-18 01:59N 35°27' E 139°39'0 0.0
2018-Apr-18 01:29N 35°27' E 139°39'0 0.0
2018-Apr-18 00:59N 35°27' E 139°39'0 0.0
2018-Apr-18 00:29N 35°27' E 139°39'0 0.0
2018-Apr-17 23:59N 35°27' E 139°39'0 0.0
2018-Apr-17 23:29N 35°27' E 139°39'0 0.0
2018-Apr-17 22:59N 35°27' E 139°39'0 0.0
2018-Apr-17 22:29N 35°27' E 139°39'0 0.0
2018-Apr-17 21:59N 35°27' E 139°39'0 0.0
2018-Apr-17 21:29N 35°27' E 139°39'0 0.0
2018-Apr-17 20:59N 35°27' E 139°39'0 0.0
2018-Apr-17 20:29N 35°27' E 139°39'0 0.0
2018-Apr-17 19:59N 35°27' E 139°39'0 0.0
2018-Apr-17 19:29N 35°27' E 139°39'0 0.0
2018-Apr-17 18:59N 35°27' E 139°39'0 0.0
2018-Apr-17 18:29N 35°27' E 139°39'0 0.0
2018-Apr-17 17:59N 35°27' E 139°39'0 0.0
2018-Apr-17 17:29N 35°27' E 139°39'0 0.0
2018-Apr-17 16:59N 35°27' E 139°39'0 0.0
2018-Apr-17 16:29N 35°27' E 139°39'0 0.0
2018-Apr-17 15:59N 35°27' E 139°39'0 0.0
2018-Apr-17 15:29N 35°27' E 139°39'0 0.0
2018-Apr-17 14:59N 35°27' E 139°39'0 0.0
2018-Apr-17 14:29N 35°27' E 139°39'0 0.0
2018-Apr-17 13:59N 35°27' E 139°39'0 0.0
2018-Apr-17 13:29N 35°27' E 139°39'0 0.0
2018-Apr-17 12:59N 35°27' E 139°39'0 0.0
2018-Apr-17 12:29N 35°27' E 139°39'1 1.4
2018-Apr-17 12:00N 35°28' E 139°39'2 4.1
2018-Apr-17 11:30N 35°27' E 139°41'1 1.2
2018-Apr-17 11:00N 35°27' E 139°42'2 4.6
2018-Apr-17 10:30N 35°27' E 139°39'0 0.0
2018-Apr-17 09:58N 35°27' E 139°39'1 1.5
2018-Apr-17 09:30N 35°28' E 139°39'1 1.8
2018-Apr-17 09:00N 35°28' E 139°40'2 3.7
2018-Apr-17 08:30N 35°27' E 139°42'2 4.4
2018-Apr-17 08:00N 35°27' E 139°39'0 0.0
2018-Apr-17 07:29N 35°27' E 139°39'1 1.2
2018-Apr-17 07:00N 35°28' E 139°39'2 4.5
2018-Apr-17 06:30N 35°27' E 139°42'2 3.7
2018-Apr-17 06:00N 35°27' E 139°40'1 1.4
2018-Apr-17 05:28N 35°27' E 139°39'0 0.0
2018-Apr-17 04:58N 35°27' E 139°39'1 1.6
2018-Apr-17 04:30N 35°28' E 139°39'3 5.8
2018-Apr-17 04:00N 35°26' E 139°42'1 1.0
2018-Apr-17 03:30N 35°27' E 139°42'2 4.4
2018-Apr-17 03:00N 35°27' E 139°39'0 0.0
2018-Apr-17 02:29N 35°27' E 139°39'0 0.0
2018-Apr-17 01:59N 35°27' E 139°39'0 0.0
2018-Apr-17 01:29N 35°27' E 139°39'0 0.0
2018-Apr-17 00:59N 35°27' E 139°39'0 0.0
2018-Apr-17 00:29N 35°27' E 139°39'0 0.0
2018-Apr-16 23:59N 35°27' E 139°39'0 0.0
2018-Apr-16 23:29N 35°27' E 139°39'0 0.0
2018-Apr-16 22:59N 35°27' E 139°39'0 0.0
2018-Apr-16 22:29N 35°27' E 139°39'0 0.0
2018-Apr-16 21:59N 35°27' E 139°39'0 0.0
2018-Apr-16 21:29N 35°27' E 139°39'0 0.0
2018-Apr-16 20:59N 35°27' E 139°39'0 0.0
2018-Apr-16 20:29N 35°27' E 139°39'0 0.0
2018-Apr-16 19:59N 35°27' E 139°39'0 0.1
2018-Apr-16 19:29N 35°27' E 139°39'0 0.1
2018-Apr-16 18:59N 35°27' E 139°39'0 0.0
2018-Apr-16 18:29N 35°27' E 139°39'0 0.0
2018-Apr-16 17:59N 35°27' E 139°39'0 0.0
2018-Apr-16 17:29N 35°27' E 139°39'0 0.0
2018-Apr-16 16:59N 35°27' E 139°39'0 0.0
2018-Apr-16 16:26N 35°27' E 139°39'0 0.0
2018-Apr-16 15:59N 35°27' E 139°39'0 0.0
2018-Apr-16 15:29N 35°27' E 139°39'0 0.0
2018-Apr-16 14:59N 35°27' E 139°39'0 0.0
2018-Apr-16 14:29N 35°27' E 139°39'0 0.0
2018-Apr-16 13:59N 35°27' E 139°39'0 0.0
2018-Apr-16 13:29N 35°27' E 139°39'0 0.0
2018-Apr-16 12:59N 35°27' E 139°39'0 0.0
2018-Apr-16 12:29N 35°27' E 139°39'0 0.0
2018-Apr-16 11:59N 35°27' E 139°39'0 0.0
2018-Apr-16 11:29N 35°27' E 139°39'0 0.0
2018-Apr-16 10:59N 35°27' E 139°39'0 0.0
2018-Apr-16 10:29N 35°27' E 139°39'0 0.0
2018-Apr-16 09:59N 35°27' E 139°39'0 0.0
2018-Apr-16 09:29N 35°27' E 139°39'0 0.0
2018-Apr-16 08:59N 35°27' E 139°39'0 0.0
2018-Apr-16 08:29N 35°27' E 139°39'0 0.0
2018-Apr-16 07:59N 35°27' E 139°39'0 0.0
2018-Apr-16 07:29N 35°27' E 139°39'0 0.0
2018-Apr-16 06:59N 35°27' E 139°39'0 0.0
2018-Apr-16 06:29N 35°27' E 139°39'0 0.0
2018-Apr-16 05:59N 35°27' E 139°39'0 0.0
2018-Apr-16 05:29N 35°27' E 139°39'0 0.0
2018-Apr-16 04:59N 35°27' E 139°39'0 0.0
2018-Apr-16 04:29N 35°27' E 139°39'0 0.0
2018-Apr-16 03:59N 35°27' E 139°39'0 0.0
2018-Apr-16 03:29N 35°27' E 139°39'0 0.0
2018-Apr-16 02:59N 35°27' E 139°39'0 0.0
2018-Apr-16 02:29N 35°27' E 139°39'0 0.0
2018-Apr-16 01:59N 35°27' E 139°39'0 0.0
2018-Apr-16 01:29N 35°27' E 139°39'0 0.0
2018-Apr-16 00:59N 35°27' E 139°39'0 0.0
2018-Apr-16 00:29N 35°27' E 139°39'0 0.0
2018-Apr-15 23:59N 35°27' E 139°39'0 0.0
2018-Apr-15 23:29N 35°27' E 139°39'0 0.0
2018-Apr-15 22:59N 35°27' E 139°39'0 0.0
2018-Apr-15 22:29N 35°27' E 139°39'0 0.0
2018-Apr-15 21:59N 35°27' E 139°39'0 0.0
2018-Apr-15 21:29N 35°27' E 139°39'0 0.0
2018-Apr-15 20:59N 35°27' E 139°39'0 0.0
2018-Apr-15 20:29N 35°27' E 139°39'0 0.0
2018-Apr-15 19:59N 35°27' E 139°39'0 0.0
2018-Apr-15 19:26N 35°27' E 139°39'0 0.0
2018-Apr-15 18:59N 35°27' E 139°39'0 0.0
2018-Apr-15 18:29N 35°27' E 139°39'0 0.0
2018-Apr-15 17:59N 35°27' E 139°39'0 0.0
2018-Apr-15 17:29N 35°27' E 139°39'0 0.0
2018-Apr-15 16:59N 35°27' E 139°39'0 0.0
2018-Apr-15 16:29N 35°27' E 139°39'0 0.0
2018-Apr-15 15:59N 35°27' E 139°39'0 0.0
2018-Apr-15 15:29N 35°27' E 139°39'0 0.0
2018-Apr-15 14:59N 35°27' E 139°39'0 0.0
2018-Apr-15 14:29N 35°27' E 139°39'0 0.0
2018-Apr-15 13:59N 35°27' E 139°39'0 0.0
2018-Apr-15 13:29N 35°27' E 139°39'0 0.0
2018-Apr-15 12:59N 35°27' E 139°39'0 0.0
2018-Apr-15 12:29N 35°27' E 139°39'1 1.5
2018-Apr-15 12:00N 35°28' E 139°39'2 3.8
2018-Apr-15 11:30N 35°27' E 139°41'0 0.6
2018-Apr-15 11:00N 35°27' E 139°41'2 4.1
2018-Apr-15 10:30N 35°27' E 139°39'0 0.0
2018-Apr-15 10:00N 35°27' E 139°39'1 1.6
2018-Apr-15 09:30N 35°28' E 139°39'3 5.1
2018-Apr-15 09:00N 35°27' E 139°42'1 1.1
2018-Apr-15 08:30N 35°27' E 139°41'2 3.4
2018-Apr-15 08:00N 35°27' E 139°39'0 0.0
2018-Apr-15 07:30N 35°27' E 139°39'1 1.2
2018-Apr-15 07:00N 35°28' E 139°39'3 5.6
2018-Apr-15 06:30N 35°26' E 139°42'2 4.6
2018-Apr-15 06:00N 35°27' E 139°40'1 1.3
2018-Apr-15 05:28N 35°27' E 139°39'0 0.0
2018-Apr-15 04:58N 35°27' E 139°39'1 1.4
2018-Apr-15 04:30N 35°28' E 139°39'1 1.2
2018-Apr-15 04:00N 35°27' E 139°40'0 0.6
2018-Apr-15 03:30N 35°28' E 139°40'1 1.8
2018-Apr-15 03:00N 35°27' E 139°39'0 0.0
2018-Apr-15 02:30N 35°27' E 139°39'0 0.0
2018-Apr-15 02:00N 35°27' E 139°39'0 0.0
2018-Apr-15 01:30N 35°27' E 139°39'0 0.0
2018-Apr-15 01:00N 35°27' E 139°39'0 0.0
2018-Apr-15 00:30N 35°27' E 139°39'0 0.0
2018-Apr-15 00:00N 35°27' E 139°39'0 0.0
2018-Apr-14 23:30N 35°27' E 139°39'0 0.0
2018-Apr-14 23:00N 35°27' E 139°39'0 0.0
2018-Apr-14 22:30N 35°27' E 139°39'0 0.0
2018-Apr-14 22:00N 35°27' E 139°39'0 0.0
2018-Apr-14 21:30N 35°27' E 139°39'0 0.0
2018-Apr-14 21:00N 35°27' E 139°39'0 0.0
2018-Apr-14 20:30N 35°27' E 139°39'0 0.0
2018-Apr-14 20:00N 35°27' E 139°39'0 0.0
2018-Apr-14 19:30N 35°27' E 139°39'0 0.0
2018-Apr-14 19:00N 35°27' E 139°39'0 0.0
2018-Apr-14 18:30N 35°27' E 139°39'0 0.0
2018-Apr-14 18:00N 35°27' E 139°39'0 0.0
2018-Apr-14 17:30N 35°27' E 139°39'0 0.0
2018-Apr-14 17:00N 35°27' E 139°39'0 0.0
2018-Apr-14 16:30N 35°27' E 139°39'0 0.0
2018-Apr-14 16:00N 35°27' E 139°39'0 0.0
2018-Apr-14 15:30N 35°27' E 139°39'0 0.0
2018-Apr-14 15:00N 35°27' E 139°39'0 0.0
2018-Apr-14 14:30N 35°27' E 139°39'0 0.0
2018-Apr-14 14:00N 35°27' E 139°39'0 0.0
2018-Apr-14 13:30N 35°27' E 139°39'0 0.0
2018-Apr-14 13:00N 35°27' E 139°39'0 0.0
2018-Apr-14 12:30N 35°27' E 139°39'1 1.7
2018-Apr-14 12:00N 35°28' E 139°39'2 3.3
2018-Apr-14 11:30N 35°27' E 139°41'1 2.3
2018-Apr-14 11:00N 35°26' E 139°42'2 4.6
2018-Apr-14 10:30N 35°27' E 139°39'0 0.0
2018-Apr-14 09:58N 35°27' E 139°39'1 1.5
2018-Apr-14 09:30N 35°28' E 139°39'2 4.9
2018-Apr-14 09:00N 35°27' E 139°42'0 0.8
2018-Apr-14 08:30N 35°27' E 139°41'2 3.9
2018-Apr-14 08:00N 35°27' E 139°39'0 0.0
2018-Apr-14 07:30N 35°27' E 139°39'1 1.3
2018-Apr-14 07:00N 35°28' E 139°39'2 3.7
2018-Apr-14 06:30N 35°27' E 139°41'2 3.1
2018-Apr-14 06:00N 35°27' E 139°39'1 1.2
2018-Apr-14 05:28N 35°27' E 139°39'0 0.0
2018-Apr-14 04:58N 35°27' E 139°39'1 1.8
2018-Apr-14 04:31N 35°28' E 139°39'1 1.5
2018-Apr-14 04:01N 35°27' E 139°40'1 2.9
2018-Apr-14 03:31N 35°27' E 139°41'2 4.0
2018-Apr-14 03:01N 35°27' E 139°39'0 0.0
2018-Apr-14 02:29N 35°27' E 139°39'0 0.0
2018-Apr-14 01:59N 35°27' E 139°39'0 0.0
2018-Apr-14 01:29N 35°27' E 139°39'0 0.0
2018-Apr-14 00:59N 35°27' E 139°39'0 0.0
2018-Apr-14 00:29N 35°27' E 139°39'0 0.0
2018-Apr-13 23:59N 35°27' E 139°39'0 0.0
2018-Apr-13 23:29N 35°27' E 139°39'0 0.0
2018-Apr-13 22:59N 35°27' E 139°39'0 0.0
2018-Apr-13 22:26N 35°27' E 139°39'0 0.0
2018-Apr-13 21:59N 35°27' E 139°39'0 0.0
2018-Apr-13 21:29N 35°27' E 139°39'0 0.1
2018-Apr-13 20:59N 35°27' E 139°39'0 0.1
2018-Apr-13 20:29N 35°27' E 139°39'0 0.1
2018-Apr-13 19:59N 35°27' E 139°39'0 0.1
2018-Apr-13 19:29N 35°27' E 139°39'0 0.0
2018-Apr-13 18:59N 35°27' E 139°39'0 0.0
2018-Apr-13 18:29N 35°27' E 139°39'0 0.0
2018-Apr-13 17:59N 35°27' E 139°39'0 0.0
2018-Apr-13 17:29N 35°27' E 139°39'0 0.0
2018-Apr-13 16:59N 35°27' E 139°39'0 0.0
2018-Apr-13 16:29N 35°27' E 139°39'0 0.0
2018-Apr-13 15:59N 35°27' E 139°39'0 0.0
2018-Apr-13 15:29N 35°27' E 139°39'0 0.0
2018-Apr-13 14:59N 35°27' E 139°39'0 0.0
2018-Apr-13 14:29N 35°27' E 139°39'0 0.0
2018-Apr-13 13:59N 35°27' E 139°39'0 0.0
2018-Apr-13 13:29N 35°27' E 139°39'0 0.0
2018-Apr-13 12:59N 35°27' E 139°39'0 0.0
2018-Apr-13 12:29N 35°27' E 139°39'1 1.5
2018-Apr-13 12:00N 35°28' E 139°39'2 3.1
2018-Apr-13 11:30N 35°27' E 139°41'1 2.1
2018-Apr-13 11:00N 35°27' E 139°42'2 4.4
2018-Apr-13 10:30N 35°27' E 139°39'0 0.0
2018-Apr-13 10:00N 35°27' E 139°39'1 1.7
2018-Apr-13 09:30N 35°28' E 139°39'1 2.4
2018-Apr-13 09:00N 35°27' E 139°40'2 3.2
2018-Apr-13 08:30N 35°26' E 139°42'2 4.5
2018-Apr-13 08:00N 35°27' E 139°39'0 0.0
2018-Apr-13 07:28N 35°27' E 139°39'1 1.1
2018-Apr-13 07:00N 35°27' E 139°39'3 5.2
2018-Apr-13 06:30N 35°27' E 139°42'2 4.5
2018-Apr-13 06:00N 35°28' E 139°40'1 1.9
2018-Apr-13 05:30N 35°27' E 139°39'0 0.0
2018-Apr-13 05:00N 35°27' E 139°39'1 1.6
2018-Apr-13 04:30N 35°28' E 139°39'3 6.3
2018-Apr-13 04:00N 35°26' E 139°42'0 0.6
2018-Apr-13 03:30N 35°26' E 139°42'2 4.7
2018-Apr-13 03:00N 35°27' E 139°39'0 0.0
2018-Apr-13 02:29N 35°27' E 139°39'0 0.0
2018-Apr-13 01:59N 35°27' E 139°39'0 0.0
2018-Apr-13 01:29N 35°27' E 139°39'0 0.0
2018-Apr-13 00:59N 35°27' E 139°39'0 0.0
2018-Apr-13 00:29N 35°27' E 139°39'0 0.0
2018-Apr-12 23:56N 35°27' E 139°39'0 0.0
2018-Apr-12 23:29N 35°27' E 139°39'0 0.0
2018-Apr-12 22:59N 35°27' E 139°39'0 0.0
2018-Apr-12 22:29N 35°27' E 139°39'0 0.0
2018-Apr-12 21:59N 35°27' E 139°39'0 0.0
2018-Apr-12 21:29N 35°27' E 139°39'0 0.0
2018-Apr-12 20:59N 35°27' E 139°39'0 0.0
2018-Apr-12 20:29N 35°27' E 139°39'0 0.0
2018-Apr-12 19:59N 35°27' E 139°39'0 0.0
2018-Apr-12 19:29N 35°27' E 139°39'0 0.0
2018-Apr-12 18:59N 35°27' E 139°39'0 0.0
2018-Apr-12 18:29N 35°27' E 139°39'0 0.0
2018-Apr-12 17:59N 35°27' E 139°39'0 0.0
2018-Apr-12 17:29N 35°27' E 139°39'0 0.0
2018-Apr-12 16:59N 35°27' E 139°39'0 0.0
2018-Apr-12 16:29N 35°27' E 139°39'0 0.0
2018-Apr-12 15:59N 35°27' E 139°39'0 0.0
2018-Apr-12 15:29N 35°27' E 139°39'0 0.0
2018-Apr-12 14:59N 35°27' E 139°39'0 0.0
2018-Apr-12 14:29N 35°27' E 139°39'0 0.0
2018-Apr-12 13:59N 35°27' E 139°39'0 0.0
2018-Apr-12 13:29N 35°27' E 139°39'0 0.0
2018-Apr-12 12:59N 35°27' E 139°39'0 0.0
2018-Apr-12 12:29N 35°27' E 139°39'0 1.0
2018-Apr-12 12:00N 35°28' E 139°39'1 2.0
2018-Apr-12 11:30N 35°27' E 139°40'1 2.7
2018-Apr-12 11:00N 35°27' E 139°41'2 4.3
2018-Apr-12 10:30N 35°27' E 139°39'0 0.0
2018-Apr-12 09:59N 35°27' E 139°39'1 1.5
2018-Apr-12 09:30N 35°28' E 139°39'1 2.2
2018-Apr-12 09:00N 35°27' E 139°40'2 3.1
2018-Apr-12 08:30N 35°26' E 139°42'2 4.5
2018-Apr-12 08:00N 35°27' E 139°39'0 0.0
2018-Apr-12 07:30N 35°27' E 139°39'1 1.2
2018-Apr-12 07:00N 35°28' E 139°39'2 4.9
2018-Apr-12 06:30N 35°27' E 139°42'2 3.9
2018-Apr-12 06:00N 35°28' E 139°40'1 1.8
2018-Apr-12 05:31N 35°27' E 139°39'0 0.0
2018-Apr-12 05:01N 35°27' E 139°39'1 1.4
2018-Apr-12 04:30N 35°28' E 139°39'1 2.3
2018-Apr-12 04:00N 35°27' E 139°40'1 2.5
2018-Apr-12 03:30N 35°27' E 139°42'2 4.4
2018-Apr-12 03:00N 35°27' E 139°39'0 0.0
2018-Apr-12 02:30N 35°27' E 139°39'0 0.0
2018-Apr-12 02:00N 35°27' E 139°39'0 0.0
2018-Apr-12 01:30N 35°27' E 139°39'0 0.0
2018-Apr-12 01:00N 35°27' E 139°39'0 0.0
2018-Apr-12 00:30N 35°27' E 139°39'0 0.0
2018-Apr-12 00:00N 35°27' E 139°39'0 0.0
2018-Apr-11 23:30N 35°27' E 139°39'0 0.0
2018-Apr-11 23:00N 35°27' E 139°39'0 0.0
2018-Apr-11 22:30N 35°27' E 139°39'0 0.0
2018-Apr-11 22:00N 35°27' E 139°39'0 0.0
2018-Apr-11 21:30N 35°27' E 139°39'0 0.0
2018-Apr-11 21:00N 35°27' E 139°39'0 0.0
2018-Apr-11 20:30N 35°27' E 139°39'0 0.0
2018-Apr-11 20:00N 35°27' E 139°39'0 0.0
2018-Apr-11 19:30N 35°27' E 139°39'0 0.0
2018-Apr-11 19:00N 35°27' E 139°39'0 0.0
2018-Apr-11 18:30N 35°27' E 139°39'0 0.0
2018-Apr-11 18:00N 35°27' E 139°39'0 0.0
2018-Apr-11 17:30N 35°27' E 139°39'0 0.0
2018-Apr-11 17:00N 35°27' E 139°39'0 0.0
2018-Apr-11 16:30N 35°27' E 139°39'0 0.0
2018-Apr-11 16:00N 35°27' E 139°39'0 0.0
2018-Apr-11 15:30N 35°27' E 139°39'0 0.0
2018-Apr-11 15:00N 35°27' E 139°39'0 0.0
2018-Apr-11 14:30N 35°27' E 139°39'0 0.0
2018-Apr-11 14:00N 35°27' E 139°39'0 0.0
2018-Apr-11 13:30N 35°27' E 139°39'0 0.0
2018-Apr-11 13:00N 35°27' E 139°39'0 0.0
2018-Apr-11 12:30N 35°27' E 139°39'1 1.4
2018-Apr-11 12:00N 35°28' E 139°39'0 0.8
2018-Apr-11 11:30N 35°28' E 139°39'0 0.9
2018-Apr-11 11:00N 35°28' E 139°39'1 1.4
2018-Apr-11 10:30N 35°27' E 139°39'0 0.0
2018-Apr-11 10:00N 35°27' E 139°39'1 1.5
2018-Apr-11 09:30N 35°28' E 139°39'1 2.4
2018-Apr-11 09:00N 35°27' E 139°40'1 1.7
2018-Apr-11 08:30N 35°27' E 139°41'2 3.4
2018-Apr-11 08:00N 35°27' E 139°39'0 0.0
2018-Apr-11 07:29N 35°27' E 139°39'0 0.5
2018-Apr-11 07:00N 35°27' E 139°39'0 0.9
2018-Apr-11 06:30N 35°27' E 139°39'0 0.4
2018-Apr-11 06:00N 35°27' E 139°40'1 1.6
2018-Apr-11 05:30N 35°27' E 139°39'0 0.0
2018-Apr-11 05:00N 35°27' E 139°39'1 1.5
2018-Apr-11 04:30N 35°28' E 139°39'2 3.9
2018-Apr-11 04:00N 35°27' E 139°41'1 1.6
2018-Apr-11 03:30N 35°26' E 139°42'2 4.5
2018-Apr-11 03:00N 35°27' E 139°39'0 0.0
2018-Apr-11 02:30N 35°27' E 139°39'0 0.0
2018-Apr-11 02:00N 35°27' E 139°39'0 0.0
2018-Apr-11 01:30N 35°27' E 139°39'0 0.0
2018-Apr-11 01:00N 35°27' E 139°39'0 0.0
2018-Apr-11 00:30N 35°27' E 139°39'0 0.0
2018-Apr-11 00:00N 35°27' E 139°39'0 0.0
2018-Apr-10 23:30N 35°27' E 139°39'0 0.0
2018-Apr-10 23:00N 35°27' E 139°39'0 0.0
2018-Apr-10 22:30N 35°27' E 139°39'0 0.0
2018-Apr-10 22:00N 35°27' E 139°39'0 0.0
2018-Apr-10 21:30N 35°27' E 139°39'0 0.0
2018-Apr-10 21:00N 35°27' E 139°39'0 0.0
2018-Apr-10 20:30N 35°27' E 139°39'0 0.0
2018-Apr-10 20:00N 35°27' E 139°39'0 0.0
2018-Apr-10 19:30N 35°27' E 139°39'0 0.0
2018-Apr-10 19:00N 35°27' E 139°39'0 0.0
2018-Apr-10 18:30N 35°27' E 139°39'0 0.0
2018-Apr-10 18:00N 35°27' E 139°39'0 0.0
2018-Apr-10 17:30N 35°27' E 139°39'0 0.0
2018-Apr-10 17:00N 35°27' E 139°39'0 0.0
2018-Apr-10 16:30N 35°27' E 139°39'0 0.0
2018-Apr-10 16:00N 35°27' E 139°39'0 0.0
2018-Apr-10 15:30N 35°27' E 139°39'0 0.0
2018-Apr-10 15:00N 35°27' E 139°39'0 0.0
2018-Apr-10 14:30N 35°27' E 139°39'0 0.0
2018-Apr-10 14:00N 35°27' E 139°39'0 0.0
2018-Apr-10 13:30N 35°27' E 139°39'0 0.0
2018-Apr-10 13:00N 35°27' E 139°39'0 0.0
2018-Apr-10 12:30N 35°27' E 139°39'1 1.6
2018-Apr-10 12:01N 35°28' E 139°39'2 4.9
2018-Apr-10 11:31N 35°27' E 139°41'0 0.4
2018-Apr-10 11:00N 35°27' E 139°41'2 3.7
2018-Apr-10 10:30N 35°27' E 139°39'0 0.0
2018-Apr-10 10:00N 35°27' E 139°39'1 1.6
2018-Apr-10 09:30N 35°28' E 139°39'3 6.5
2018-Apr-10 09:00N 35°26' E 139°42'1 1.4
2018-Apr-10 08:31N 35°27' E 139°41'2 4.2
2018-Apr-10 08:00N 35°27' E 139°39'0 0.0
2018-Apr-10 07:29N 35°27' E 139°39'1 1.1
2018-Apr-10 07:00N 35°28' E 139°39'1 1.8
2018-Apr-10 06:30N 35°27' E 139°40'1 1.1
2018-Apr-10 06:00N 35°28' E 139°40'1 1.6
2018-Apr-10 05:28N 35°27' E 139°39'0 0.0
2018-Apr-10 04:58N 35°27' E 139°39'1 1.6
2018-Apr-10 04:30N 35°28' E 139°39'1 2.0
2018-Apr-10 04:00N 35°27' E 139°40'2 3.4
2018-Apr-10 03:30N 35°26' E 139°42'2 4.5
2018-Apr-10 03:00N 35°27' E 139°39'0 0.0
2018-Apr-10 02:29N 35°27' E 139°39'0 0.0
2018-Apr-10 01:59N 35°27' E 139°39'0 0.0
2018-Apr-10 01:29N 35°27' E 139°39'0 0.0
2018-Apr-10 00:59N 35°27' E 139°39'0 0.0
2018-Apr-10 00:29N 35°27' E 139°39'0 0.0
2018-Apr-09 23:59N 35°27' E 139°39'0 0.0
2018-Apr-09 23:29N 35°27' E 139°39'0 0.0
2018-Apr-09 22:59N 35°27' E 139°39'  
Track history (hours):
 
Tides and Currents Weather Stations Pressure Air Temp Water Temp Dewpoint Dewpoint Depression Visibility Wind Speed Wind Dir Waves Ship Positions

Royalwing

Last reported at 2018-Apr-19 22:58 UTC. Time now 2018-Apr-19 23:16 UTC.
Position N 35°27' E 139°39'.

Length 83 m; draft 4 m.

Type: Ship (hazmat cat A). MMSI: 431000547.

Date/timePositionNaut miles runAvg speedWind from/ knotsBaromVisibWave heightAir tempDewpointWater temp
2018-Apr-19 22:58N 35°27' E 139°39'0 0.0
2018-Apr-19 22:28N 35°27' E 139°39'0 0.0
2018-Apr-19 21:58N 35°27' E 139°39'0 0.0
2018-Apr-19 21:28N 35°27' E 139°39'0 0.0
2018-Apr-19 20:58N 35°27' E 139°39'0 0.0
2018-Apr-19 20:28N 35°27' E 139°39'0 0.0
2018-Apr-19 19:58N 35°27' E 139°39'0 0.0
2018-Apr-19 19:28N 35°27' E 139°39'0 0.0
2018-Apr-19 18:58N 35°27' E 139°39'0 0.0
2018-Apr-19 18:28N 35°27' E 139°39'0 0.0
2018-Apr-19 17:58N 35°27' E 139°39'0 0.0
2018-Apr-19 17:28N 35°27' E 139°39'0 0.0
2018-Apr-19 16:58N 35°27' E 139°39'0 0.0
2018-Apr-19 16:28N 35°27' E 139°39'0 0.0
2018-Apr-19 15:58N 35°27' E 139°39'0 0.0
2018-Apr-19 15:28N 35°27' E 139°39'0 0.0
2018-Apr-19 14:58N 35°27' E 139°39'0 0.0
2018-Apr-19 14:28N 35°27' E 139°39'0 0.0
2018-Apr-19 13:58N 35°27' E 139°39'0 0.0
2018-Apr-19 13:28N 35°27' E 139°39'0 0.0
2018-Apr-19 12:58N 35°27' E 139°39'0 0.0
2018-Apr-19 12:28N 35°27' E 139°39'1 1.9
2018-Apr-19 12:00N 35°28' E 139°39'3 6.6
2018-Apr-19 11:30N 35°26' E 139°42'1 1.5
2018-Apr-19 11:00N 35°27' E 139°42'2 4.4
2018-Apr-19 10:30N 35°27' E 139°39'0 0.0
2018-Apr-19 10:00N 35°27' E 139°39'1 1.7
2018-Apr-19 09:30N 35°28' E 139°39'2 3.4
2018-Apr-19 09:00N 35°27' E 139°41'0 0.2
2018-Apr-19 08:30N 35°27' E 139°41'2 3.1
2018-Apr-19 08:00N 35°27' E 139°39'0 0.0
2018-Apr-19 07:29N 35°27' E 139°39'0 0.8
2018-Apr-19 07:00N 35°27' E 139°39'2 4.0
2018-Apr-19 06:30N 35°27' E 139°42'2 3.3
2018-Apr-19 06:00N 35°27' E 139°40'1 1.5
2018-Apr-19 05:30N 35°27' E 139°39'0 0.0
2018-Apr-19 05:00N 35°27' E 139°39'1 1.8
2018-Apr-19 04:30N 35°28' E 139°39'3 6.4
2018-Apr-19 04:00N 35°26' E 139°42'1 1.0
2018-Apr-19 03:30N 35°27' E 139°42'2 4.4
2018-Apr-19 03:00N 35°27' E 139°39'0 0.0
2018-Apr-19 02:29N 35°27' E 139°39'0 0.0
2018-Apr-19 01:59N 35°27' E 139°39'0 0.0
2018-Apr-19 01:29N 35°27' E 139°39'0 0.0
2018-Apr-19 00:59N 35°27' E 139°39'0 0.0
2018-Apr-19 00:29N 35°27' E 139°39'0 0.0
2018-Apr-18 23:59N 35°27' E 139°39'0 0.0
2018-Apr-18 23:29N 35°27' E 139°39'0 0.0
2018-Apr-18 22:59N 35°27' E 139°39'0 0.0
2018-Apr-18 22:29N 35°27' E 139°39'0 0.0
2018-Apr-18 21:59N 35°27' E 139°39'0 0.0
2018-Apr-18 21:29N 35°27' E 139°39'0 0.0
2018-Apr-18 20:59N 35°27' E 139°39'0 0.0
2018-Apr-18 20:29N 35°27' E 139°39'0 0.0
2018-Apr-18 19:59N 35°27' E 139°39'0 0.0
2018-Apr-18 19:29N 35°27' E 139°39'0 0.0
2018-Apr-18 18:59N 35°27' E 139°39'0 0.0
2018-Apr-18 18:29N 35°27' E 139°39'0 0.0
2018-Apr-18 17:59N 35°27' E 139°39'0 0.0
2018-Apr-18 17:29N 35°27' E 139°39'0 0.0
2018-Apr-18 16:59N 35°27' E 139°39'0 0.0
2018-Apr-18 16:29N 35°27' E 139°39'0 0.0
2018-Apr-18 15:59N 35°27' E 139°39'0 0.0
2018-Apr-18 15:29N 35°27' E 139°39'0 0.0
2018-Apr-18 14:59N 35°27' E 139°39'0 0.0
2018-Apr-18 14:29N 35°27' E 139°39'0 0.0
2018-Apr-18 13:59N 35°27' E 139°39'0 0.0
2018-Apr-18 13:29N 35°27' E 139°39'0 0.0
2018-Apr-18 12:59N 35°27' E 139°39'0 0.0
2018-Apr-18 12:29N 35°27' E 139°39'1 1.7
2018-Apr-18 12:01N 35°28' E 139°39'2 4.1
2018-Apr-18 11:30N 35°27' E 139°41'0 0.6
2018-Apr-18 11:01N 35°27' E 139°41'2 4.0
2018-Apr-18 10:30N 35°27' E 139°39'0 0.0
2018-Apr-18 10:00N 35°27' E 139°39'1 1.8
2018-Apr-18 09:30N 35°28' E 139°39'0 0.7
2018-Apr-18 09:00N 35°28' E 139°39'2 3.9
2018-Apr-18 08:30N 35°27' E 139°41'2 3.6
2018-Apr-18 08:00N 35°27' E 139°39'0 0.0
2018-Apr-18 07:29N 35°27' E 139°39'1 1.1
2018-Apr-18 07:01N 35°28' E 139°39'3 5.6
2018-Apr-18 06:31N 35°26' E 139°42'2 4.8
2018-Apr-18 06:00N 35°27' E 139°40'1 1.3
2018-Apr-18 05:28N 35°27' E 139°39'0 0.0
2018-Apr-18 04:58N 35°27' E 139°39'1 1.9
2018-Apr-18 04:30N 35°28' E 139°39'3 6.8
2018-Apr-18 04:00N 35°26' E 139°42'1 1.5
2018-Apr-18 03:30N 35°27' E 139°42'2 4.4
2018-Apr-18 03:00N 35°27' E 139°39'0 0.0
2018-Apr-18 02:29N 35°27' E 139°39'0 0.0
2018-Apr-18 01:59N 35°27' E 139°39'0 0.0
2018-Apr-18 01:29N 35°27' E 139°39'0 0.0
2018-Apr-18 00:59N 35°27' E 139°39'0 0.0
2018-Apr-18 00:29N 35°27' E 139°39'0 0.0
2018-Apr-17 23:59N 35°27' E 139°39'0 0.0
2018-Apr-17 23:29N 35°27' E 139°39'0 0.0
2018-Apr-17 22:59N 35°27' E 139°39'0 0.0
2018-Apr-17 22:29N 35°27' E 139°39'0 0.0
2018-Apr-17 21:59N 35°27' E 139°39'0 0.0
2018-Apr-17 21:29N 35°27' E 139°39'0 0.0
2018-Apr-17 20:59N 35°27' E 139°39'0 0.0
2018-Apr-17 20:29N 35°27' E 139°39'0 0.0
2018-Apr-17 19:59N 35°27' E 139°39'0 0.0
2018-Apr-17 19:29N 35°27' E 139°39'0 0.0
2018-Apr-17 18:59N 35°27' E 139°39'0 0.0
2018-Apr-17 18:29N 35°27' E 139°39'0 0.0
2018-Apr-17 17:59N 35°27' E 139°39'0 0.0
2018-Apr-17 17:29N 35°27' E 139°39'0 0.0
2018-Apr-17 16:59N 35°27' E 139°39'0 0.0
2018-Apr-17 16:29N 35°27' E 139°39'0 0.0
2018-Apr-17 15:59N 35°27' E 139°39'0 0.0
2018-Apr-17 15:29N 35°27' E 139°39'0 0.0
2018-Apr-17 14:59N 35°27' E 139°39'0 0.0
2018-Apr-17 14:29N 35°27' E 139°39'0 0.0
2018-Apr-17 13:59N 35°27' E 139°39'0 0.0
2018-Apr-17 13:29N 35°27' E 139°39'0 0.0
2018-Apr-17 12:59N 35°27' E 139°39'0 0.0
2018-Apr-17 12:29N 35°27' E 139°39'1 1.4
2018-Apr-17 12:00N 35°28' E 139°39'2 4.1
2018-Apr-17 11:30N 35°27' E 139°41'1 1.2
2018-Apr-17 11:00N 35°27' E 139°42'2 4.6
2018-Apr-17 10:30N 35°27' E 139°39'0 0.0
2018-Apr-17 09:58N 35°27' E 139°39'1 1.5
2018-Apr-17 09:30N 35°28' E 139°39'1 1.8
2018-Apr-17 09:00N 35°28' E 139°40'2 3.7
2018-Apr-17 08:30N 35°27' E 139°42'2 4.4
2018-Apr-17 08:00N 35°27' E 139°39'0 0.0
2018-Apr-17 07:29N 35°27' E 139°39'1 1.2
2018-Apr-17 07:00N 35°28' E 139°39'2 4.5
2018-Apr-17 06:30N 35°27' E 139°42'2 3.7
2018-Apr-17 06:00N 35°27' E 139°40'1 1.4
2018-Apr-17 05:28N 35°27' E 139°39'0 0.0
2018-Apr-17 04:58N 35°27' E 139°39'1 1.6
2018-Apr-17 04:30N 35°28' E 139°39'3 5.8
2018-Apr-17 04:00N 35°26' E 139°42'1 1.0
2018-Apr-17 03:30N 35°27' E 139°42'2 4.4
2018-Apr-17 03:00N 35°27' E 139°39'0 0.0
2018-Apr-17 02:29N 35°27' E 139°39'0 0.0
2018-Apr-17 01:59N 35°27' E 139°39'0 0.0
2018-Apr-17 01:29N 35°27' E 139°39'0 0.0
2018-Apr-17 00:59N 35°27' E 139°39'0 0.0
2018-Apr-17 00:29N 35°27' E 139°39'0 0.0
2018-Apr-16 23:59N 35°27' E 139°39'0 0.0
2018-Apr-16 23:29N 35°27' E 139°39'0 0.0
2018-Apr-16 22:59N 35°27' E 139°39'0 0.0
2018-Apr-16 22:29N 35°27' E 139°39'0 0.0
2018-Apr-16 21:59N 35°27' E 139°39'0 0.0
2018-Apr-16 21:29N 35°27' E 139°39'0 0.0
2018-Apr-16 20:59N 35°27' E 139°39'0 0.0
2018-Apr-16 20:29N 35°27' E 139°39'0 0.0
2018-Apr-16 19:59N 35°27' E 139°39'0 0.1
2018-Apr-16 19:29N 35°27' E 139°39'0 0.1
2018-Apr-16 18:59N 35°27' E 139°39'0 0.0
2018-Apr-16 18:29N 35°27' E 139°39'0 0.0
2018-Apr-16 17:59N 35°27' E 139°39'0 0.0
2018-Apr-16 17:29N 35°27' E 139°39'0 0.0
2018-Apr-16 16:59N 35°27' E 139°39'0 0.0
2018-Apr-16 16:26N 35°27' E 139°39'0 0.0
2018-Apr-16 15:59N 35°27' E 139°39'0 0.0
2018-Apr-16 15:29N 35°27' E 139°39'0 0.0
2018-Apr-16 14:59N 35°27' E 139°39'0 0.0
2018-Apr-16 14:29N 35°27' E 139°39'0 0.0
2018-Apr-16 13:59N 35°27' E 139°39'0 0.0
2018-Apr-16 13:29N 35°27' E 139°39'0 0.0
2018-Apr-16 12:59N 35°27' E 139°39'0 0.0
2018-Apr-16 12:29N 35°27' E 139°39'0 0.0
2018-Apr-16 11:59N 35°27' E 139°39'0 0.0
2018-Apr-16 11:29N 35°27' E 139°39'0 0.0
2018-Apr-16 10:59N 35°27' E 139°39'0 0.0
2018-Apr-16 10:29N 35°27' E 139°39'0 0.0
2018-Apr-16 09:59N 35°27' E 139°39'0 0.0
2018-Apr-16 09:29N 35°27' E 139°39'0 0.0
2018-Apr-16 08:59N 35°27' E 139°39'0 0.0
2018-Apr-16 08:29N 35°27' E 139°39'0 0.0
2018-Apr-16 07:59N 35°27' E 139°39'0 0.0
2018-Apr-16 07:29N 35°27' E 139°39'0 0.0
2018-Apr-16 06:59N 35°27' E 139°39'0 0.0
2018-Apr-16 06:29N 35°27' E 139°39'0 0.0
2018-Apr-16 05:59N 35°27' E 139°39'0 0.0
2018-Apr-16 05:29N 35°27' E 139°39'0 0.0
2018-Apr-16 04:59N 35°27' E 139°39'0 0.0
2018-Apr-16 04:29N 35°27' E 139°39'0 0.0
2018-Apr-16 03:59N 35°27' E 139°39'0 0.0
2018-Apr-16 03:29N 35°27' E 139°39'0 0.0
2018-Apr-16 02:59N 35°27' E 139°39'0 0.0
2018-Apr-16 02:29N 35°27' E 139°39'0 0.0
2018-Apr-16 01:59N 35°27' E 139°39'0 0.0
2018-Apr-16 01:29N 35°27' E 139°39'0 0.0
2018-Apr-16 00:59N 35°27' E 139°39'0 0.0
2018-Apr-16 00:29N 35°27' E 139°39'0 0.0
2018-Apr-15 23:59N 35°27' E 139°39'0 0.0
2018-Apr-15 23:29N 35°27' E 139°39'0 0.0
2018-Apr-15 22:59N 35°27' E 139°39'0 0.0
2018-Apr-15 22:29N 35°27' E 139°39'0 0.0
2018-Apr-15 21:59N 35°27' E 139°39'0 0.0
2018-Apr-15 21:29N 35°27' E 139°39'0 0.0
2018-Apr-15 20:59N 35°27' E 139°39'0 0.0
2018-Apr-15 20:29N 35°27' E 139°39'0 0.0
2018-Apr-15 19:59N 35°27' E 139°39'0 0.0
2018-Apr-15 19:26N 35°27' E 139°39'0 0.0
2018-Apr-15 18:59N 35°27' E 139°39'0 0.0
2018-Apr-15 18:29N 35°27' E 139°39'0 0.0
2018-Apr-15 17:59N 35°27' E 139°39'0 0.0
2018-Apr-15 17:29N 35°27' E 139°39'0 0.0
2018-Apr-15 16:59N 35°27' E 139°39'0 0.0
2018-Apr-15 16:29N 35°27' E 139°39'0 0.0
2018-Apr-15 15:59N 35°27' E 139°39'0 0.0
2018-Apr-15 15:29N 35°27' E 139°39'0 0.0
2018-Apr-15 14:59N 35°27' E 139°39'0 0.0
2018-Apr-15 14:29N 35°27' E 139°39'0 0.0
2018-Apr-15 13:59N 35°27' E 139°39'0 0.0
2018-Apr-15 13:29N 35°27' E 139°39'0 0.0
2018-Apr-15 12:59N 35°27' E 139°39'0 0.0
2018-Apr-15 12:29N 35°27' E 139°39'1 1.5
2018-Apr-15 12:00N 35°28' E 139°39'2 3.8
2018-Apr-15 11:30N 35°27' E 139°41'0 0.6
2018-Apr-15 11:00N 35°27' E 139°41'2 4.1
2018-Apr-15 10:30N 35°27' E 139°39'0 0.0
2018-Apr-15 10:00N 35°27' E 139°39'1 1.6
2018-Apr-15 09:30N 35°28' E 139°39'3 5.1
2018-Apr-15 09:00N 35°27' E 139°42'1 1.1
2018-Apr-15 08:30N 35°27' E 139°41'2 3.4
2018-Apr-15 08:00N 35°27' E 139°39'0 0.0
2018-Apr-15 07:30N 35°27' E 139°39'1 1.2
2018-Apr-15 07:00N 35°28' E 139°39'3 5.6
2018-Apr-15 06:30N 35°26' E 139°42'2 4.6
2018-Apr-15 06:00N 35°27' E 139°40'1 1.3
2018-Apr-15 05:28N 35°27' E 139°39'0 0.0
2018-Apr-15 04:58N 35°27' E 139°39'1 1.4
2018-Apr-15 04:30N 35°28' E 139°39'1 1.2
2018-Apr-15 04:00N 35°27' E 139°40'0 0.6
2018-Apr-15 03:30N 35°28' E 139°40'1 1.8
2018-Apr-15 03:00N 35°27' E 139°39'0 0.0
2018-Apr-15 02:30N 35°27' E 139°39'0 0.0
2018-Apr-15 02:00N 35°27' E 139°39'0 0.0
2018-Apr-15 01:30N 35°27' E 139°39'0 0.0
2018-Apr-15 01:00N 35°27' E 139°39'0 0.0
2018-Apr-15 00:30N 35°27' E 139°39'0 0.0
2018-Apr-15 00:00N 35°27' E 139°39'0 0.0
2018-Apr-14 23:30N 35°27' E 139°39'0 0.0
2018-Apr-14 23:00N 35°27' E 139°39'0 0.0
2018-Apr-14 22:30N 35°27' E 139°39'0 0.0
2018-Apr-14 22:00N 35°27' E 139°39'0 0.0
2018-Apr-14 21:30N 35°27' E 139°39'0 0.0
2018-Apr-14 21:00N 35°27' E 139°39'0 0.0
2018-Apr-14 20:30N 35°27' E 139°39'0 0.0
2018-Apr-14 20:00N 35°27' E 139°39'0 0.0
2018-Apr-14 19:30N 35°27' E 139°39'0 0.0
2018-Apr-14 19:00N 35°27' E 139°39'0 0.0
2018-Apr-14 18:30N 35°27' E 139°39'0 0.0
2018-Apr-14 18:00N 35°27' E 139°39'0 0.0
2018-Apr-14 17:30N 35°27' E 139°39'0 0.0
2018-Apr-14 17:00N 35°27' E 139°39'0 0.0
2018-Apr-14 16:30N 35°27' E 139°39'0 0.0
2018-Apr-14 16:00N 35°27' E 139°39'0 0.0
2018-Apr-14 15:30N 35°27' E 139°39'0 0.0
2018-Apr-14 15:00N 35°27' E 139°39'0 0.0
2018-Apr-14 14:30N 35°27' E 139°39'0 0.0
2018-Apr-14 14:00N 35°27' E 139°39'0 0.0
2018-Apr-14 13:30N 35°27' E 139°39'0 0.0
2018-Apr-14 13:00N 35°27' E 139°39'0 0.0
2018-Apr-14 12:30N 35°27' E 139°39'1 1.7
2018-Apr-14 12:00N 35°28' E 139°39'2 3.3
2018-Apr-14 11:30N 35°27' E 139°41'1 2.3
2018-Apr-14 11:00N 35°26' E 139°42'2 4.6
2018-Apr-14 10:30N 35°27' E 139°39'0 0.0
2018-Apr-14 09:58N 35°27' E 139°39'1 1.5
2018-Apr-14 09:30N 35°28' E 139°39'2 4.9
2018-Apr-14 09:00N 35°27' E 139°42'0 0.8
2018-Apr-14 08:30N 35°27' E 139°41'2 3.9
2018-Apr-14 08:00N 35°27' E 139°39'0 0.0
2018-Apr-14 07:30N 35°27' E 139°39'1 1.3
2018-Apr-14 07:00N 35°28' E 139°39'2 3.7
2018-Apr-14 06:30N 35°27' E 139°41'2 3.1
2018-Apr-14 06:00N 35°27' E 139°39'1 1.2
2018-Apr-14 05:28N 35°27' E 139°39'0 0.0
2018-Apr-14 04:58N 35°27' E 139°39'1 1.8
2018-Apr-14 04:31N 35°28' E 139°39'1 1.5
2018-Apr-14 04:01N 35°27' E 139°40'1 2.9
2018-Apr-14 03:31N 35°27' E 139°41'2 4.0
2018-Apr-14 03:01N 35°27' E 139°39'0 0.0
2018-Apr-14 02:29N 35°27' E 139°39'0 0.0
2018-Apr-14 01:59N 35°27' E 139°39'0 0.0
2018-Apr-14 01:29N 35°27' E 139°39'0 0.0
2018-Apr-14 00:59N 35°27' E 139°39'0 0.0
2018-Apr-14 00:29N 35°27' E 139°39'0 0.0
2018-Apr-13 23:59N 35°27' E 139°39'0 0.0
2018-Apr-13 23:29N 35°27' E 139°39'0 0.0
2018-Apr-13 22:59N 35°27' E 139°39'0 0.0
2018-Apr-13 22:26N 35°27' E 139°39'0 0.0
2018-Apr-13 21:59N 35°27' E 139°39'0 0.0
2018-Apr-13 21:29N 35°27' E 139°39'0 0.1
2018-Apr-13 20:59N 35°27' E 139°39'0 0.1
2018-Apr-13 20:29N 35°27' E 139°39'0 0.1
2018-Apr-13 19:59N 35°27' E 139°39'0 0.1
2018-Apr-13 19:29N 35°27' E 139°39'0 0.0
2018-Apr-13 18:59N 35°27' E 139°39'0 0.0
2018-Apr-13 18:29N 35°27' E 139°39'0 0.0
2018-Apr-13 17:59N 35°27' E 139°39'0 0.0
2018-Apr-13 17:29N 35°27' E 139°39'0 0.0
2018-Apr-13 16:59N 35°27' E 139°39'0 0.0
2018-Apr-13 16:29N 35°27' E 139°39'0 0.0
2018-Apr-13 15:59N 35°27' E 139°39'0 0.0
2018-Apr-13 15:29N 35°27' E 139°39'0 0.0
2018-Apr-13 14:59N 35°27' E 139°39'0 0.0
2018-Apr-13 14:29N 35°27' E 139°39'0 0.0
2018-Apr-13 13:59N 35°27' E 139°39'0 0.0
2018-Apr-13 13:29N 35°27' E 139°39'0 0.0
2018-Apr-13 12:59N 35°27' E 139°39'0 0.0
2018-Apr-13 12:29N 35°27' E 139°39'1 1.5
2018-Apr-13 12:00N 35°28' E 139°39'2 3.1
2018-Apr-13 11:30N 35°27' E 139°41'1 2.1
2018-Apr-13 11:00N 35°27' E 139°42'2 4.4
2018-Apr-13 10:30N 35°27' E 139°39'0 0.0
2018-Apr-13 10:00N 35°27' E 139°39'1 1.7
2018-Apr-13 09:30N 35°28' E 139°39'1 2.4
2018-Apr-13 09:00N 35°27' E 139°40'2 3.2
2018-Apr-13 08:30N 35°26' E 139°42'2 4.5
2018-Apr-13 08:00N 35°27' E 139°39'0 0.0
2018-Apr-13 07:28N 35°27' E 139°39'1 1.1
2018-Apr-13 07:00N 35°27' E 139°39'3 5.2
2018-Apr-13 06:30N 35°27' E 139°42'2 4.5
2018-Apr-13 06:00N 35°28' E 139°40'1 1.9
2018-Apr-13 05:30N 35°27' E 139°39'0 0.0
2018-Apr-13 05:00N 35°27' E 139°39'1 1.6
2018-Apr-13 04:30N 35°28' E 139°39'3 6.3
2018-Apr-13 04:00N 35°26' E 139°42'0 0.6
2018-Apr-13 03:30N 35°26' E 139°42'2 4.7
2018-Apr-13 03:00N 35°27' E 139°39'0 0.0
2018-Apr-13 02:29N 35°27' E 139°39'0 0.0
2018-Apr-13 01:59N 35°27' E 139°39'0 0.0
2018-Apr-13 01:29N 35°27' E 139°39'0 0.0
2018-Apr-13 00:59N 35°27' E 139°39'0 0.0
2018-Apr-13 00:29N 35°27' E 139°39'0 0.0
2018-Apr-12 23:56N 35°27' E 139°39'0 0.0
2018-Apr-12 23:29N 35°27' E 139°39'0 0.0
2018-Apr-12 22:59N 35°27' E 139°39'0 0.0
2018-Apr-12 22:29N 35°27' E 139°39'0 0.0
2018-Apr-12 21:59N 35°27' E 139°39'0 0.0
2018-Apr-12 21:29N 35°27' E 139°39'0 0.0
2018-Apr-12 20:59N 35°27' E 139°39'0 0.0
2018-Apr-12 20:29N 35°27' E 139°39'0 0.0
2018-Apr-12 19:59N 35°27' E 139°39'0 0.0
2018-Apr-12 19:29N 35°27' E 139°39'0 0.0
2018-Apr-12 18:59N 35°27' E 139°39'0 0.0
2018-Apr-12 18:29N 35°27' E 139°39'0 0.0
2018-Apr-12 17:59N 35°27' E 139°39'0 0.0
2018-Apr-12 17:29N 35°27' E 139°39'0 0.0
2018-Apr-12 16:59N 35°27' E 139°39'0 0.0
2018-Apr-12 16:29N 35°27' E 139°39'0 0.0
2018-Apr-12 15:59N 35°27' E 139°39'0 0.0
2018-Apr-12 15:29N 35°27' E 139°39'0 0.0
2018-Apr-12 14:59N 35°27' E 139°39'0 0.0
2018-Apr-12 14:29N 35°27' E 139°39'0 0.0
2018-Apr-12 13:59N 35°27' E 139°39'0 0.0
2018-Apr-12 13:29N 35°27' E 139°39'0 0.0
2018-Apr-12 12:59N 35°27' E 139°39'0 0.0
2018-Apr-12 12:29N 35°27' E 139°39'0 1.0
2018-Apr-12 12:00N 35°28' E 139°39'1 2.0
2018-Apr-12 11:30N 35°27' E 139°40'1 2.7
2018-Apr-12 11:00N 35°27' E 139°41'2 4.3
2018-Apr-12 10:30N 35°27' E 139°39'0 0.0
2018-Apr-12 09:59N 35°27' E 139°39'1 1.5
2018-Apr-12 09:30N 35°28' E 139°39'1 2.2
2018-Apr-12 09:00N 35°27' E 139°40'2 3.1
2018-Apr-12 08:30N 35°26' E 139°42'2 4.5
2018-Apr-12 08:00N 35°27' E 139°39'0 0.0
2018-Apr-12 07:30N 35°27' E 139°39'1 1.2
2018-Apr-12 07:00N 35°28' E 139°39'2 4.9
2018-Apr-12 06:30N 35°27' E 139°42'2 3.9
2018-Apr-12 06:00N 35°28' E 139°40'1 1.8
2018-Apr-12 05:31N 35°27' E 139°39'0 0.0
2018-Apr-12 05:01N 35°27' E 139°39'1 1.4
2018-Apr-12 04:30N 35°28' E 139°39'1 2.3
2018-Apr-12 04:00N 35°27' E 139°40'1 2.5
2018-Apr-12 03:30N 35°27' E 139°42'2 4.4
2018-Apr-12 03:00N 35°27' E 139°39'0 0.0
2018-Apr-12 02:30N 35°27' E 139°39'0 0.0
2018-Apr-12 02:00N 35°27' E 139°39'0 0.0
2018-Apr-12 01:30N 35°27' E 139°39'0 0.0
2018-Apr-12 01:00N 35°27' E 139°39'0 0.0
2018-Apr-12 00:30N 35°27' E 139°39'0 0.0
2018-Apr-12 00:00N 35°27' E 139°39'0 0.0
2018-Apr-11 23:30N 35°27' E 139°39'0 0.0
2018-Apr-11 23:00N 35°27' E 139°39'0 0.0
2018-Apr-11 22:30N 35°27' E 139°39'0 0.0
2018-Apr-11 22:00N 35°27' E 139°39'0 0.0
2018-Apr-11 21:30N 35°27' E 139°39'0 0.0
2018-Apr-11 21:00N 35°27' E 139°39'0 0.0
2018-Apr-11 20:30N 35°27' E 139°39'0 0.0
2018-Apr-11 20:00N 35°27' E 139°39'0 0.0
2018-Apr-11 19:30N 35°27' E 139°39'0 0.0
2018-Apr-11 19:00N 35°27' E 139°39'0 0.0
2018-Apr-11 18:30N 35°27' E 139°39'0 0.0
2018-Apr-11 18:00N 35°27' E 139°39'0 0.0
2018-Apr-11 17:30N 35°27' E 139°39'0 0.0
2018-Apr-11 17:00N 35°27' E 139°39'0 0.0
2018-Apr-11 16:30N 35°27' E 139°39'0 0.0
2018-Apr-11 16:00N 35°27' E 139°39'0 0.0
2018-Apr-11 15:30N 35°27' E 139°39'0 0.0
2018-Apr-11 15:00N 35°27' E 139°39'0 0.0
2018-Apr-11 14:30N 35°27' E 139°39'0 0.0
2018-Apr-11 14:00N 35°27' E 139°39'0 0.0
2018-Apr-11 13:30N 35°27' E 139°39'0 0.0
2018-Apr-11 13:00N 35°27' E 139°39'0 0.0
2018-Apr-11 12:30N 35°27' E 139°39'1 1.4
2018-Apr-11 12:00N 35°28' E 139°39'0 0.8
2018-Apr-11 11:30N 35°28' E 139°39'0 0.9
2018-Apr-11 11:00N 35°28' E 139°39'1 1.4
2018-Apr-11 10:30N 35°27' E 139°39'0 0.0
2018-Apr-11 10:00N 35°27' E 139°39'1 1.5
2018-Apr-11 09:30N 35°28' E 139°39'1 2.4
2018-Apr-11 09:00N 35°27' E 139°40'1 1.7
2018-Apr-11 08:30N 35°27' E 139°41'2 3.4
2018-Apr-11 08:00N 35°27' E 139°39'0 0.0
2018-Apr-11 07:29N 35°27' E 139°39'0 0.5
2018-Apr-11 07:00N 35°27' E 139°39'0 0.9
2018-Apr-11 06:30N 35°27' E 139°39'0 0.4
2018-Apr-11 06:00N 35°27' E 139°40'1 1.6
2018-Apr-11 05:30N 35°27' E 139°39'0 0.0
2018-Apr-11 05:00N 35°27' E 139°39'1 1.5
2018-Apr-11 04:30N 35°28' E 139°39'2 3.9
2018-Apr-11 04:00N 35°27' E 139°41'1 1.6
2018-Apr-11 03:30N 35°26' E 139°42'2 4.5
2018-Apr-11 03:00N 35°27' E 139°39'0 0.0
2018-Apr-11 02:30N 35°27' E 139°39'0 0.0
2018-Apr-11 02:00N 35°27' E 139°39'0 0.0
2018-Apr-11 01:30N 35°27' E 139°39'0 0.0
2018-Apr-11 01:00N 35°27' E 139°39'0 0.0
2018-Apr-11 00:30N 35°27' E 139°39'0 0.0
2018-Apr-11 00:00N 35°27' E 139°39'0 0.0
2018-Apr-10 23:30N 35°27' E 139°39'0 0.0
2018-Apr-10 23:00N 35°27' E 139°39'0 0.0
2018-Apr-10 22:30N 35°27' E 139°39'0 0.0
2018-Apr-10 22:00N 35°27' E 139°39'0 0.0
2018-Apr-10 21:30N 35°27' E 139°39'0 0.0
2018-Apr-10 21:00N 35°27' E 139°39'0 0.0
2018-Apr-10 20:30N 35°27' E 139°39'0 0.0
2018-Apr-10 20:00N 35°27' E 139°39'0 0.0
2018-Apr-10 19:30N 35°27' E 139°39'0 0.0
2018-Apr-10 19:00N 35°27' E 139°39'0 0.0
2018-Apr-10 18:30N 35°27' E 139°39'0 0.0
2018-Apr-10 18:00N 35°27' E 139°39'0 0.0
2018-Apr-10 17:30N 35°27' E 139°39'0 0.0
2018-Apr-10 17:00N 35°27' E 139°39'0 0.0
2018-Apr-10 16:30N 35°27' E 139°39'0 0.0
2018-Apr-10 16:00N 35°27' E 139°39'0 0.0
2018-Apr-10 15:30N 35°27' E 139°39'0 0.0
2018-Apr-10 15:00N 35°27' E 139°39'0 0.0
2018-Apr-10 14:30N 35°27' E 139°39'0 0.0
2018-Apr-10 14:00N 35°27' E 139°39'0 0.0
2018-Apr-10 13:30N 35°27' E 139°39'0 0.0
2018-Apr-10 13:00N 35°27' E 139°39'0 0.0
2018-Apr-10 12:30N 35°27' E 139°39'1 1.6
2018-Apr-10 12:01N 35°28' E 139°39'2 4.9
2018-Apr-10 11:31N 35°27' E 139°41'0 0.4
2018-Apr-10 11:00N 35°27' E 139°41'2 3.7
2018-Apr-10 10:30N 35°27' E 139°39'0 0.0
2018-Apr-10 10:00N 35°27' E 139°39'1 1.6
2018-Apr-10 09:30N 35°28' E 139°39'3 6.5
2018-Apr-10 09:00N 35°26' E 139°42'1 1.4
2018-Apr-10 08:31N 35°27' E 139°41'2 4.2
2018-Apr-10 08:00N 35°27' E 139°39'0 0.0
2018-Apr-10 07:29N 35°27' E 139°39'1 1.1
2018-Apr-10 07:00N 35°28' E 139°39'1 1.8
2018-Apr-10 06:30N 35°27' E 139°40'1 1.1
2018-Apr-10 06:00N 35°28' E 139°40'1 1.6
2018-Apr-10 05:28N 35°27' E 139°39'0 0.0
2018-Apr-10 04:58N 35°27' E 139°39'1 1.6
2018-Apr-10 04:30N 35°28' E 139°39'1 2.0
2018-Apr-10 04:00N 35°27' E 139°40'2 3.4
2018-Apr-10 03:30N 35°26' E 139°42'2 4.5
2018-Apr-10 03:00N 35°27' E 139°39'0 0.0
2018-Apr-10 02:29N 35°27' E 139°39'0 0.0
2018-Apr-10 01:59N 35°27' E 139°39'0 0.0
2018-Apr-10 01:29N 35°27' E 139°39'0 0.0
2018-Apr-10 00:59N 35°27' E 139°39'0 0.0
2018-Apr-10 00:29N 35°27' E 139°39'0 0.0
2018-Apr-09 23:59N 35°27' E 139°39'0 0.0
2018-Apr-09 23:29N 35°27' E 139°39'0 0.0
2018-Apr-09 22:59N 35°27' E 139°39'  

Dump ship's entire track history